sensor_id;sensor_type;location;lat;lon;timestamp;temperature;humidity
45060;DHT22;30799;49.060;9.312;2023-04-16T00:01:53;20.40;60.10
45060;DHT22;30799;49.060;9.312;2023-04-16T00:04:19;20.50;60.00
45060;DHT22;30799;49.060;9.312;2023-04-16T00:06:46;20.40;59.90
45060;DHT22;30799;49.060;9.312;2023-04-16T00:09:13;20.40;60.00
45060;DHT22;30799;49.060;9.312;2023-04-16T00:11:39;20.40;59.90
45060;DHT22;30799;49.060;9.312;2023-04-16T00:14:06;20.40;60.00
45060;DHT22;30799;49.060;9.312;2023-04-16T00:16:33;20.50;60.00
45060;DHT22;30799;49.060;9.312;2023-04-16T00:18:59;20.40;60.00
45060;DHT22;30799;49.060;9.312;2023-04-16T00:21:26;20.40;59.90
45060;DHT22;30799;49.060;9.312;2023-04-16T00:23:53;20.40;59.80
45060;DHT22;30799;49.060;9.312;2023-04-16T00:26:19;20.40;59.90
45060;DHT22;30799;49.060;9.312;2023-04-16T00:28:46;20.40;59.90
45060;DHT22;30799;49.060;9.312;2023-04-16T00:31:13;20.40;59.80
45060;DHT22;30799;49.060;9.312;2023-04-16T00:33:39;20.40;59.80
45060;DHT22;30799;49.060;9.312;2023-04-16T00:36:06;20.50;59.90
45060;DHT22;30799;49.060;9.312;2023-04-16T00:38:33;20.40;59.90
45060;DHT22;30799;49.060;9.312;2023-04-16T00:41:00;20.50;59.80
45060;DHT22;30799;49.060;9.312;2023-04-16T00:43:27;20.40;59.90
45060;DHT22;30799;49.060;9.312;2023-04-16T00:45:55;20.40;59.80
45060;DHT22;30799;49.060;9.312;2023-04-16T00:48:22;20.50;59.90
45060;DHT22;30799;49.060;9.312;2023-04-16T00:50:49;20.40;59.80
45060;DHT22;30799;49.060;9.312;2023-04-16T00:53:16;20.40;59.80
45060;DHT22;30799;49.060;9.312;2023-04-16T00:55:43;20.40;59.80
45060;DHT22;30799;49.060;9.312;2023-04-16T00:58:11;20.40;59.90
45060;DHT22;30799;49.060;9.312;2023-04-16T01:00:38;20.40;59.80
45060;DHT22;30799;49.060;9.312;2023-04-16T01:03:05;20.50;59.80
45060;DHT22;30799;49.060;9.312;2023-04-16T01:05:31;20.40;59.90
45060;DHT22;30799;49.060;9.312;2023-04-16T01:07:58;20.50;59.90
45060;DHT22;30799;49.060;9.312;2023-04-16T01:10:28;20.40;59.80
45060;DHT22;30799;49.060;9.312;2023-04-16T01:12:54;20.40;59.90
45060;DHT22;30799;49.060;9.312;2023-04-16T01:15:21;20.40;59.80
45060;DHT22;30799;49.060;9.312;2023-04-16T01:17:48;20.40;59.80
45060;DHT22;30799;49.060;9.312;2023-04-16T01:20:15;20.40;59.80
45060;DHT22;30799;49.060;9.312;2023-04-16T01:22:41;20.40;59.90
45060;DHT22;30799;49.060;9.312;2023-04-16T01:25:13;20.50;59.90
45060;DHT22;30799;49.060;9.312;2023-04-16T01:27:39;20.40;59.80
45060;DHT22;30799;49.060;9.312;2023-04-16T01:30:06;20.50;59.80
45060;DHT22;30799;49.060;9.312;2023-04-16T01:32:33;20.40;59.80
45060;DHT22;30799;49.060;9.312;2023-04-16T01:35:00;20.40;59.70
45060;DHT22;30799;49.060;9.312;2023-04-16T01:37:27;20.40;59.80
45060;DHT22;30799;49.060;9.312;2023-04-16T01:39:53;20.40;59.90
45060;DHT22;30799;49.060;9.312;2023-04-16T01:42:20;20.40;59.80
45060;DHT22;30799;49.060;9.312;2023-04-16T01:44:46;20.40;59.70
45060;DHT22;30799;49.060;9.312;2023-04-16T01:47:13;20.40;59.80
45060;DHT22;30799;49.060;9.312;2023-04-16T01:49:40;20.40;59.70
45060;DHT22;30799;49.060;9.312;2023-04-16T01:52:07;20.40;59.80
45060;DHT22;30799;49.060;9.312;2023-04-16T01:54:34;20.40;59.80
45060;DHT22;30799;49.060;9.312;2023-04-16T01:57:01;20.40;59.80
45060;DHT22;30799;49.060;9.312;2023-04-16T01:59:28;20.40;59.80
45060;DHT22;30799;49.060;9.312;2023-04-16T02:01:55;20.40;59.80
45060;DHT22;30799;49.060;9.312;2023-04-16T02:04:22;20.40;59.90
45060;DHT22;30799;49.060;9.312;2023-04-16T02:06:48;20.40;59.80
45060;DHT22;30799;49.060;9.312;2023-04-16T02:09:15;20.40;59.70
45060;DHT22;30799;49.060;9.312;2023-04-16T02:11:41;20.40;59.70
45060;DHT22;30799;49.060;9.312;2023-04-16T02:14:08;20.40;59.70
45060;DHT22;30799;49.060;9.312;2023-04-16T02:16:35;20.40;59.70
45060;DHT22;30799;49.060;9.312;2023-04-16T02:19:01;20.40;59.80
45060;DHT22;30799;49.060;9.312;2023-04-16T02:21:29;20.40;59.70
45060;DHT22;30799;49.060;9.312;2023-04-16T02:23:57;20.40;59.70
45060;DHT22;30799;49.060;9.312;2023-04-16T02:26:24;20.40;59.70
45060;DHT22;30799;49.060;9.312;2023-04-16T02:28:51;20.40;59.70
45060;DHT22;30799;49.060;9.312;2023-04-16T02:31:18;20.40;59.70
45060;DHT22;30799;49.060;9.312;2023-04-16T02:33:45;20.40;59.60
45060;DHT22;30799;49.060;9.312;2023-04-16T02:36:12;20.50;59.80
45060;DHT22;30799;49.060;9.312;2023-04-16T02:38:39;20.50;59.80
45060;DHT22;30799;49.060;9.312;2023-04-16T02:41:05;20.50;59.60
45060;DHT22;30799;49.060;9.312;2023-04-16T02:43:32;20.50;59.60
45060;DHT22;30799;49.060;9.312;2023-04-16T02:45:58;20.50;59.60
45060;DHT22;30799;49.060;9.312;2023-04-16T02:48:25;20.40;59.50
45060;DHT22;30799;49.060;9.312;2023-04-16T02:50:52;20.50;59.60
45060;DHT22;30799;49.060;9.312;2023-04-16T02:53:18;20.50;59.50
45060;DHT22;30799;49.060;9.312;2023-04-16T02:55:50;20.50;59.50
45060;DHT22;30799;49.060;9.312;2023-04-16T02:58:19;20.50;59.60
45060;DHT22;30799;49.060;9.312;2023-04-16T03:00:46;20.50;59.50
45060;DHT22;30799;49.060;9.312;2023-04-16T03:03:13;20.50;59.40
45060;DHT22;30799;49.060;9.312;2023-04-16T03:05:39;20.50;59.50
45060;DHT22;30799;49.060;9.312;2023-04-16T03:08:06;20.50;59.50
45060;DHT22;30799;49.060;9.312;2023-04-16T03:10:33;20.50;59.50
45060;DHT22;30799;49.060;9.312;2023-04-16T03:13:03;20.50;59.40
45060;DHT22;30799;49.060;9.312;2023-04-16T03:15:30;20.50;59.50
45060;DHT22;30799;49.060;9.312;2023-04-16T03:17:56;20.60;59.50
45060;DHT22;30799;49.060;9.312;2023-04-16T03:20:23;20.60;59.50
45060;DHT22;30799;49.060;9.312;2023-04-16T03:22:51;20.60;59.50
45060;DHT22;30799;49.060;9.312;2023-04-16T03:25:18;20.60;59.40
45060;DHT22;30799;49.060;9.312;2023-04-16T03:27:44;20.60;59.50
45060;DHT22;30799;49.060;9.312;2023-04-16T03:30:12;20.60;59.40
45060;DHT22;30799;49.060;9.312;2023-04-16T03:32:39;20.60;59.50
45060;DHT22;30799;49.060;9.312;2023-04-16T03:35:07;20.60;59.40
45060;DHT22;30799;49.060;9.312;2023-04-16T03:37:34;20.60;59.30
45060;DHT22;30799;49.060;9.312;2023-04-16T03:40:01;20.60;59.40
45060;DHT22;30799;49.060;9.312;2023-04-16T03:42:28;20.60;59.30
45060;DHT22;30799;49.060;9.312;2023-04-16T03:44:55;20.60;59.40
45060;DHT22;30799;49.060;9.312;2023-04-16T03:47:22;20.60;59.30
45060;DHT22;30799;49.060;9.312;2023-04-16T03:49:49;20.60;59.40
45060;DHT22;30799;49.060;9.312;2023-04-16T03:52:16;20.60;59.30
45060;DHT22;30799;49.060;9.312;2023-04-16T03:54:43;20.60;59.30
45060;DHT22;30799;49.060;9.312;2023-04-16T03:57:09;20.50;59.20
45060;DHT22;30799;49.060;9.312;2023-04-16T03:59:36;20.60;59.30
45060;DHT22;30799;49.060;9.312;2023-04-16T04:02:02;20.60;59.20
45060;DHT22;30799;49.060;9.312;2023-04-16T04:04:29;20.60;59.20
45060;DHT22;30799;49.060;9.312;2023-04-16T04:06:56;20.60;59.20
45060;DHT22;30799;49.060;9.312;2023-04-16T04:09:23;20.60;59.20
45060;DHT22;30799;49.060;9.312;2023-04-16T04:11:49;20.60;59.20
45060;DHT22;30799;49.060;9.312;2023-04-16T04:14:16;20.60;59.20
45060;DHT22;30799;49.060;9.312;2023-04-16T04:16:43;20.60;59.20
45060;DHT22;30799;49.060;9.312;2023-04-16T04:19:10;20.60;59.10
45060;DHT22;30799;49.060;9.312;2023-04-16T04:21:37;20.60;59.20
45060;DHT22;30799;49.060;9.312;2023-04-16T04:24:03;20.60;59.10
45060;DHT22;30799;49.060;9.312;2023-04-16T04:26:30;20.60;59.10
45060;DHT22;30799;49.060;9.312;2023-04-16T04:28:57;20.70;59.10
45060;DHT22;30799;49.060;9.312;2023-04-16T04:31:24;20.70;59.10
45060;DHT22;30799;49.060;9.312;2023-04-16T04:33:50;20.40;54.30
45060;DHT22;30799;49.060;9.312;2023-04-16T04:36:17;19.00;53.50
45060;DHT22;30799;49.060;9.312;2023-04-16T04:38:44;18.20;54.50
45060;DHT22;30799;49.060;9.312;2023-04-16T04:41:10;17.80;55.40
45060;DHT22;30799;49.060;9.312;2023-04-16T04:43:37;17.50;55.90
45060;DHT22;30799;49.060;9.312;2023-04-16T04:46:04;17.20;56.30
45060;DHT22;30799;49.060;9.312;2023-04-16T04:48:31;17.10;56.70
45060;DHT22;30799;49.060;9.312;2023-04-16T04:50:57;17.30;57.30
45060;DHT22;30799;49.060;9.312;2023-04-16T04:53:24;18.20;56.20
45060;DHT22;30799;49.060;9.312;2023-04-16T04:55:51;18.80;55.90
45060;DHT22;30799;49.060;9.312;2023-04-16T04:58:22;19.20;56.40
45060;DHT22;30799;49.060;9.312;2023-04-16T05:00:49;19.40;56.70
45060;DHT22;30799;49.060;9.312;2023-04-16T05:03:19;19.70;56.90
45060;DHT22;30799;49.060;9.312;2023-04-16T05:05:47;19.80;57.30
45060;DHT22;30799;49.060;9.312;2023-04-16T05:08:13;19.90;57.20
45060;DHT22;30799;49.060;9.312;2023-04-16T05:10:40;20.00;57.70
45060;DHT22;30799;49.060;9.312;2023-04-16T05:13:06;20.10;58.00
45060;DHT22;30799;49.060;9.312;2023-04-16T05:15:33;20.10;59.50
45060;DHT22;30799;49.060;9.312;2023-04-16T05:18:00;20.10;58.80
45060;DHT22;30799;49.060;9.312;2023-04-16T05:20:26;20.20;60.10
45060;DHT22;30799;49.060;9.312;2023-04-16T05:22:53;20.20;61.20
45060;DHT22;30799;49.060;9.312;2023-04-16T05:25:20;20.20;61.60
45060;DHT22;30799;49.060;9.312;2023-04-16T05:27:47;20.30;62.00
45060;DHT22;30799;49.060;9.312;2023-04-16T05:30:14;20.30;62.60
45060;DHT22;30799;49.060;9.312;2023-04-16T05:32:41;20.30;63.40
45060;DHT22;30799;49.060;9.312;2023-04-16T05:35:08;20.30;62.30
45060;DHT22;30799;49.060;9.312;2023-04-16T05:37:35;20.30;62.40
45060;DHT22;30799;49.060;9.312;2023-04-16T05:40:02;20.30;62.40
45060;DHT22;30799;49.060;9.312;2023-04-16T05:42:29;20.30;62.40
45060;DHT22;30799;49.060;9.312;2023-04-16T05:44:56;20.30;62.20
45060;DHT22;30799;49.060;9.312;2023-04-16T05:47:23;20.30;62.20
45060;DHT22;30799;49.060;9.312;2023-04-16T05:49:50;20.30;62.20
45060;DHT22;30799;49.060;9.312;2023-04-16T05:52:16;20.30;62.00
45060;DHT22;30799;49.060;9.312;2023-04-16T05:54:43;20.30;62.10
45060;DHT22;30799;49.060;9.312;2023-04-16T05:57:09;20.30;61.90
45060;DHT22;30799;49.060;9.312;2023-04-16T05:59:37;20.30;62.00
45060;DHT22;30799;49.060;9.312;2023-04-16T06:02:03;20.30;61.80
45060;DHT22;30799;49.060;9.312;2023-04-16T06:04:30;20.30;61.90
45060;DHT22;30799;49.060;9.312;2023-04-16T06:06:57;20.30;61.60
45060;DHT22;30799;49.060;9.312;2023-04-16T06:09:23;20.30;61.70
45060;DHT22;30799;49.060;9.312;2023-04-16T06:11:50;20.30;61.60
45060;DHT22;30799;49.060;9.312;2023-04-16T06:14:17;20.30;61.50
45060;DHT22;30799;49.060;9.312;2023-04-16T06:16:43;20.30;61.30
45060;DHT22;30799;49.060;9.312;2023-04-16T06:19:10;20.30;61.50
45060;DHT22;30799;49.060;9.312;2023-04-16T06:21:37;20.30;61.30
45060;DHT22;30799;49.060;9.312;2023-04-16T06:24:04;20.30;61.30
45060;DHT22;30799;49.060;9.312;2023-04-16T06:26:31;20.30;61.20
45060;DHT22;30799;49.060;9.312;2023-04-16T06:28:57;20.30;61.20
45060;DHT22;30799;49.060;9.312;2023-04-16T06:31:24;20.30;61.30
45060;DHT22;30799;49.060;9.312;2023-04-16T06:33:50;20.30;61.20
45060;DHT22;30799;49.060;9.312;2023-04-16T06:36:17;20.30;61.00
45060;DHT22;30799;49.060;9.312;2023-04-16T06:38:44;20.30;60.90
45060;DHT22;30799;49.060;9.312;2023-04-16T06:41:11;20.20;60.90
45060;DHT22;30799;49.060;9.312;2023-04-16T06:43:38;20.30;60.90
45060;DHT22;30799;49.060;9.312;2023-04-16T06:46:05;20.20;60.70
45060;DHT22;30799;49.060;9.312;2023-04-16T06:48:31;20.30;60.70
45060;DHT22;30799;49.060;9.312;2023-04-16T06:50:58;20.30;60.70
45060;DHT22;30799;49.060;9.312;2023-04-16T06:53:25;20.20;60.60
45060;DHT22;30799;49.060;9.312;2023-04-16T06:55:51;20.30;60.60
45060;DHT22;30799;49.060;9.312;2023-04-16T06:58:18;20.20;60.40
45060;DHT22;30799;49.060;9.312;2023-04-16T07:00:45;20.20;60.40
45060;DHT22;30799;49.060;9.312;2023-04-16T07:03:11;20.20;60.40
45060;DHT22;30799;49.060;9.312;2023-04-16T07:05:38;20.20;60.40
45060;DHT22;30799;49.060;9.312;2023-04-16T07:08:05;20.20;60.40
45060;DHT22;30799;49.060;9.312;2023-04-16T07:10:32;20.20;60.30
45060;DHT22;30799;49.060;9.312;2023-04-16T07:12:59;20.20;60.10
45060;DHT22;30799;49.060;9.312;2023-04-16T07:15:27;20.20;60.30
45060;DHT22;30799;49.060;9.312;2023-04-16T07:17:53;20.20;60.30
45060;DHT22;30799;49.060;9.312;2023-04-16T07:20:20;20.20;60.10
45060;DHT22;30799;49.060;9.312;2023-04-16T07:22:47;20.20;60.00
45060;DHT22;30799;49.060;9.312;2023-04-16T07:25:13;20.20;60.20
45060;DHT22;30799;49.060;9.312;2023-04-16T07:27:40;20.20;60.30
45060;DHT22;30799;49.060;9.312;2023-04-16T07:30:07;20.20;60.20
45060;DHT22;30799;49.060;9.312;2023-04-16T07:32:34;20.20;60.10
45060;DHT22;30799;49.060;9.312;2023-04-16T07:35:01;20.20;60.10
45060;DHT22;30799;49.060;9.312;2023-04-16T07:37:29;20.20;60.10
45060;DHT22;30799;49.060;9.312;2023-04-16T07:39:56;20.20;60.10
45060;DHT22;30799;49.060;9.312;2023-04-16T07:42:23;20.20;60.00
45060;DHT22;30799;49.060;9.312;2023-04-16T07:44:49;20.20;59.90
45060;DHT22;30799;49.060;9.312;2023-04-16T07:47:16;20.20;60.00
45060;DHT22;30799;49.060;9.312;2023-04-16T07:49:43;20.20;60.00
45060;DHT22;30799;49.060;9.312;2023-04-16T07:52:09;20.20;60.00
45060;DHT22;30799;49.060;9.312;2023-04-16T07:54:36;20.10;60.10
45060;DHT22;30799;49.060;9.312;2023-04-16T07:57:02;20.10;59.90
45060;DHT22;30799;49.060;9.312;2023-04-16T07:59:29;20.20;59.90
45060;DHT22;30799;49.060;9.312;2023-04-16T08:01:56;20.10;59.80
45060;DHT22;30799;49.060;9.312;2023-04-16T08:04:22;20.10;59.80
45060;DHT22;30799;49.060;9.312;2023-04-16T08:06:53;20.10;59.70
45060;DHT22;30799;49.060;9.312;2023-04-16T08:09:21;20.10;59.70
45060;DHT22;30799;49.060;9.312;2023-04-16T08:11:48;20.10;59.90
45060;DHT22;30799;49.060;9.312;2023-04-16T08:14:15;20.10;59.70
45060;DHT22;30799;49.060;9.312;2023-04-16T08:16:42;20.10;59.60
45060;DHT22;30799;49.060;9.312;2023-04-16T08:19:09;20.10;59.80
45060;DHT22;30799;49.060;9.312;2023-04-16T08:21:36;20.10;59.80
45060;DHT22;30799;49.060;9.312;2023-04-16T08:24:03;20.10;59.70
45060;DHT22;30799;49.060;9.312;2023-04-16T08:26:29;20.10;59.60
45060;DHT22;30799;49.060;9.312;2023-04-16T08:28:56;20.10;59.60
45060;DHT22;30799;49.060;9.312;2023-04-16T08:31:23;20.10;59.70
45060;DHT22;30799;49.060;9.312;2023-04-16T08:33:49;20.10;59.70
45060;DHT22;30799;49.060;9.312;2023-04-16T08:36:16;20.10;59.70
45060;DHT22;30799;49.060;9.312;2023-04-16T08:38:42;20.10;59.60
45060;DHT22;30799;49.060;9.312;2023-04-16T08:41:11;20.10;59.60
45060;DHT22;30799;49.060;9.312;2023-04-16T08:43:43;20.10;59.60
45060;DHT22;30799;49.060;9.312;2023-04-16T08:46:10;20.10;59.70
45060;DHT22;30799;49.060;9.312;2023-04-16T08:48:37;20.10;59.50
45060;DHT22;30799;49.060;9.312;2023-04-16T08:51:09;20.10;59.50
45060;DHT22;30799;49.060;9.312;2023-04-16T08:56:13;20.00;59.50
45060;DHT22;30799;49.060;9.312;2023-04-16T08:58:41;20.00;59.40
45060;DHT22;30799;49.060;9.312;2023-04-16T09:01:08;20.00;59.40
45060;DHT22;30799;49.060;9.312;2023-04-16T09:03:36;20.00;59.40
45060;DHT22;30799;49.060;9.312;2023-04-16T09:06:04;20.00;59.30
45060;DHT22;30799;49.060;9.312;2023-04-16T09:08:32;20.00;59.30
45060;DHT22;30799;49.060;9.312;2023-04-16T09:11:01;20.00;59.40
45060;DHT22;30799;49.060;9.312;2023-04-16T09:13:27;20.00;59.40
45060;DHT22;30799;49.060;9.312;2023-04-16T09:15:54;20.00;59.30
45060;DHT22;30799;49.060;9.312;2023-04-16T09:18:23;20.00;59.40
45060;DHT22;30799;49.060;9.312;2023-04-16T09:20:50;20.00;59.30
45060;DHT22;30799;49.060;9.312;2023-04-16T09:23:17;20.00;59.30
45060;DHT22;30799;49.060;9.312;2023-04-16T09:25:44;20.00;59.30
45060;DHT22;30799;49.060;9.312;2023-04-16T09:28:11;20.00;59.30
45060;DHT22;30799;49.060;9.312;2023-04-16T09:30:37;19.90;59.10
45060;DHT22;30799;49.060;9.312;2023-04-16T09:33:18;19.90;59.20
45060;DHT22;30799;49.060;9.312;2023-04-16T09:35:50;20.00;59.20
45060;DHT22;30799;49.060;9.312;2023-04-16T09:38:18;19.90;59.20
45060;DHT22;30799;49.060;9.312;2023-04-16T09:40:45;20.00;59.30
45060;DHT22;30799;49.060;9.312;2023-04-16T09:43:14;20.00;59.20
45060;DHT22;30799;49.060;9.312;2023-04-16T09:45:52;20.00;59.20
45060;DHT22;30799;49.060;9.312;2023-04-16T09:48:30;20.00;59.20
45060;DHT22;30799;49.060;9.312;2023-04-16T09:50:59;19.90;59.10
45060;DHT22;30799;49.060;9.312;2023-04-16T09:53:27;19.90;59.20
45060;DHT22;30799;49.060;9.312;2023-04-16T09:56:03;19.90;59.10
45060;DHT22;30799;49.060;9.312;2023-04-16T09:58:30;19.90;59.10
45060;DHT22;30799;49.060;9.312;2023-04-16T10:01:10;19.90;59.10
45060;DHT22;30799;49.060;9.312;2023-04-16T10:03:39;19.90;59.20
45060;DHT22;30799;49.060;9.312;2023-04-16T10:06:17;19.90;59.20
45060;DHT22;30799;49.060;9.312;2023-04-16T10:08:52;19.90;59.10
45060;DHT22;30799;49.060;9.312;2023-04-16T10:11:19;19.90;59.20
45060;DHT22;30799;49.060;9.312;2023-04-16T10:13:47;19.90;59.20
45060;DHT22;30799;49.060;9.312;2023-04-16T10:16:13;19.90;59.10
45060;DHT22;30799;49.060;9.312;2023-04-16T10:18:43;19.90;59.10
45060;DHT22;30799;49.060;9.312;2023-04-16T10:21:10;19.90;59.10
45060;DHT22;30799;49.060;9.312;2023-04-16T10:23:38;19.90;59.10
45060;DHT22;30799;49.060;9.312;2023-04-16T10:26:05;19.90;59.20
45060;DHT22;30799;49.060;9.312;2023-04-16T10:28:32;19.90;59.10
45060;DHT22;30799;49.060;9.312;2023-04-16T10:31:02;19.80;59.10
45060;DHT22;30799;49.060;9.312;2023-04-16T10:33:34;19.90;59.10
45060;DHT22;30799;49.060;9.312;2023-04-16T10:36:14;19.80;59.10
45060;DHT22;30799;49.060;9.312;2023-04-16T10:38:49;19.90;59.10
45060;DHT22;30799;49.060;9.312;2023-04-16T10:41:16;19.90;59.10
45060;DHT22;30799;49.060;9.312;2023-04-16T10:43:47;19.80;59.10
45060;DHT22;30799;49.060;9.312;2023-04-16T10:46:25;19.80;59.00
45060;DHT22;30799;49.060;9.312;2023-04-16T10:48:59;19.80;59.00
45060;DHT22;30799;49.060;9.312;2023-04-16T10:51:32;19.80;58.90
45060;DHT22;30799;49.060;9.312;2023-04-16T10:54:20;19.80;59.00
45060;DHT22;30799;49.060;9.312;2023-04-16T10:56:47;19.80;59.00
45060;DHT22;30799;49.060;9.312;2023-04-16T10:59:20;19.80;59.00
45060;DHT22;30799;49.060;9.312;2023-04-16T11:01:58;19.80;59.00
45060;DHT22;30799;49.060;9.312;2023-04-16T11:04:32;19.80;59.10
45060;DHT22;30799;49.060;9.312;2023-04-16T11:09:54;19.80;58.90
45060;DHT22;30799;49.060;9.312;2023-04-16T11:12:38;19.80;58.90
45060;DHT22;30799;49.060;9.312;2023-04-16T11:15:15;19.80;58.90
45060;DHT22;30799;49.060;9.312;2023-04-16T11:17:44;19.80;58.90
45060;DHT22;30799;49.060;9.312;2023-04-16T11:20:21;19.80;58.90
45060;DHT22;30799;49.060;9.312;2023-04-16T11:22:50;19.80;58.90
45060;DHT22;30799;49.060;9.312;2023-04-16T11:25:23;19.80;58.90
45060;DHT22;30799;49.060;9.312;2023-04-16T11:27:51;19.80;58.90
45060;DHT22;30799;49.060;9.312;2023-04-16T11:32:55;19.70;58.80
45060;DHT22;30799;49.060;9.312;2023-04-16T11:35:22;19.80;58.90
45060;DHT22;30799;49.060;9.312;2023-04-16T11:37:48;19.80;58.90
45060;DHT22;30799;49.060;9.312;2023-04-16T11:40:15;19.70;58.80
45060;DHT22;30799;49.060;9.312;2023-04-16T11:42:43;19.70;58.90
45060;DHT22;30799;49.060;9.312;2023-04-16T11:45:11;19.80;58.90
45060;DHT22;30799;49.060;9.312;2023-04-16T11:47:52;19.80;58.90
45060;DHT22;30799;49.060;9.312;2023-04-16T11:50:24;19.70;58.90
45060;DHT22;30799;49.060;9.312;2023-04-16T11:52:54;19.70;58.90
45060;DHT22;30799;49.060;9.312;2023-04-16T11:55:22;19.70;58.90
45060;DHT22;30799;49.060;9.312;2023-04-16T11:57:49;19.70;58.90
45060;DHT22;30799;49.060;9.312;2023-04-16T12:00:17;19.70;58.80
45060;DHT22;30799;49.060;9.312;2023-04-16T12:02:50;19.70;58.70
45060;DHT22;30799;49.060;9.312;2023-04-16T12:05:33;19.70;58.80
45060;DHT22;30799;49.060;9.312;2023-04-16T12:08:08;19.70;58.80
45060;DHT22;30799;49.060;9.312;2023-04-16T12:10:51;19.70;58.80
45060;DHT22;30799;49.060;9.312;2023-04-16T12:13:18;19.70;58.80
45060;DHT22;30799;49.060;9.312;2023-04-16T12:18:12;19.60;58.80
45060;DHT22;30799;49.060;9.312;2023-04-16T12:20:40;19.60;58.70
45060;DHT22;30799;49.060;9.312;2023-04-16T12:23:07;19.60;58.70
45060;DHT22;30799;49.060;9.312;2023-04-16T12:25:34;19.60;58.70
45060;DHT22;30799;49.060;9.312;2023-04-16T12:28:01;19.60;58.70
45060;DHT22;30799;49.060;9.312;2023-04-16T12:30:29;19.60;58.70
45060;DHT22;30799;49.060;9.312;2023-04-16T12:33:16;19.60;58.70
45060;DHT22;30799;49.060;9.312;2023-04-16T12:35:43;19.60;58.80
45060;DHT22;30799;49.060;9.312;2023-04-16T12:38:10;19.60;58.80
45060;DHT22;30799;49.060;9.312;2023-04-16T12:40:37;19.60;58.70
45060;DHT22;30799;49.060;9.312;2023-04-16T12:43:04;19.60;58.70
45060;DHT22;30799;49.060;9.312;2023-04-16T12:45:31;19.60;58.80
45060;DHT22;30799;49.060;9.312;2023-04-16T12:47:58;19.60;58.70
45060;DHT22;30799;49.060;9.312;2023-04-16T12:50:25;19.60;58.70
45060;DHT22;30799;49.060;9.312;2023-04-16T12:52:51;19.60;58.70
45060;DHT22;30799;49.060;9.312;2023-04-16T12:55:18;19.60;58.70
45060;DHT22;30799;49.060;9.312;2023-04-16T12:57:45;19.60;58.70
45060;DHT22;30799;49.060;9.312;2023-04-16T13:00:14;19.60;58.70
45060;DHT22;30799;49.060;9.312;2023-04-16T13:02:41;19.60;58.70
45060;DHT22;30799;49.060;9.312;2023-04-16T13:05:08;19.60;58.70
45060;DHT22;30799;49.060;9.312;2023-04-16T13:07:35;19.60;58.70
45060;DHT22;30799;49.060;9.312;2023-04-16T13:10:02;19.60;58.70
45060;DHT22;30799;49.060;9.312;2023-04-16T13:12:29;19.60;58.70
45060;DHT22;30799;49.060;9.312;2023-04-16T13:14:55;19.60;58.70
45060;DHT22;30799;49.060;9.312;2023-04-16T13:17:22;19.60;58.70
45060;DHT22;30799;49.060;9.312;2023-04-16T13:19:49;19.60;58.70
45060;DHT22;30799;49.060;9.312;2023-04-16T13:22:15;19.60;58.70
45060;DHT22;30799;49.060;9.312;2023-04-16T13:24:42;19.60;58.70
45060;DHT22;30799;49.060;9.312;2023-04-16T13:27:09;19.60;58.60
45060;DHT22;30799;49.060;9.312;2023-04-16T13:29:36;19.40;56.60
45060;DHT22;30799;49.060;9.312;2023-04-16T13:32:03;18.50;56.50
45060;DHT22;30799;49.060;9.312;2023-04-16T13:34:30;18.50;58.00
45060;DHT22;30799;49.060;9.312;2023-04-16T13:36:57;18.90;58.10
45060;DHT22;30799;49.060;9.312;2023-04-16T13:39:24;19.10;58.90
45060;DHT22;30799;49.060;9.312;2023-04-16T13:41:50;19.30;58.80
45060;DHT22;30799;49.060;9.312;2023-04-16T13:44:17;19.40;58.40
45060;DHT22;30799;49.060;9.312;2023-04-16T13:46:44;19.40;58.40
45060;DHT22;30799;49.060;9.312;2023-04-16T13:49:13;19.50;58.40
45060;DHT22;30799;49.060;9.312;2023-04-16T13:51:43;19.50;58.30
45060;DHT22;30799;49.060;9.312;2023-04-16T13:54:12;19.60;58.30
45060;DHT22;30799;49.060;9.312;2023-04-16T13:56:39;19.50;58.60
45060;DHT22;30799;49.060;9.312;2023-04-16T13:59:06;19.60;58.70
45060;DHT22;30799;49.060;9.312;2023-04-16T14:01:33;19.60;58.40
45060;DHT22;30799;49.060;9.312;2023-04-16T14:04:00;19.60;58.50
45060;DHT22;30799;49.060;9.312;2023-04-16T14:06:33;19.60;58.60
45060;DHT22;30799;49.060;9.312;2023-04-16T14:08:59;19.60;58.50
45060;DHT22;30799;49.060;9.312;2023-04-16T14:11:26;19.30;55.80
45060;DHT22;30799;49.060;9.312;2023-04-16T14:13:53;18.40;56.50
45060;DHT22;30799;49.060;9.312;2023-04-16T14:16:20;18.00;57.30
45060;DHT22;30799;49.060;9.312;2023-04-16T14:18:47;18.10;58.10
45060;DHT22;30799;49.060;9.312;2023-04-16T14:21:13;18.50;57.50
45060;DHT22;30799;49.060;9.312;2023-04-16T14:23:40;18.90;57.70
45060;DHT22;30799;49.060;9.312;2023-04-16T14:26:07;19.00;57.70
45060;DHT22;30799;49.060;9.312;2023-04-16T14:28:34;19.10;57.60
45060;DHT22;30799;49.060;9.312;2023-04-16T14:31:01;19.20;57.50
45060;DHT22;30799;49.060;9.312;2023-04-16T14:33:27;19.30;57.30
45060;DHT22;30799;49.060;9.312;2023-04-16T14:35:54;19.30;57.40
45060;DHT22;30799;49.060;9.312;2023-04-16T14:38:21;19.40;57.50
45060;DHT22;30799;49.060;9.312;2023-04-16T14:40:48;19.40;57.40
45060;DHT22;30799;49.060;9.312;2023-04-16T14:43:14;19.50;57.50
45060;DHT22;30799;49.060;9.312;2023-04-16T14:45:41;19.40;57.00
45060;DHT22;30799;49.060;9.312;2023-04-16T14:48:08;19.50;57.30
45060;DHT22;30799;49.060;9.312;2023-04-16T14:50:35;19.50;57.40
45060;DHT22;30799;49.060;9.312;2023-04-16T14:53:10;19.60;57.60
45060;DHT22;30799;49.060;9.312;2023-04-16T14:55:37;19.60;57.40
45060;DHT22;30799;49.060;9.312;2023-04-16T14:58:04;19.60;57.40
45060;DHT22;30799;49.060;9.312;2023-04-16T15:00:33;19.60;57.50
45060;DHT22;30799;49.060;9.312;2023-04-16T15:03:00;19.60;57.50
45060;DHT22;30799;49.060;9.312;2023-04-16T15:05:27;19.60;57.50
45060;DHT22;30799;49.060;9.312;2023-04-16T15:07:53;19.60;57.60
45060;DHT22;30799;49.060;9.312;2023-04-16T15:10:20;19.60;57.60
45060;DHT22;30799;49.060;9.312;2023-04-16T15:12:47;19.70;58.00
45060;DHT22;30799;49.060;9.312;2023-04-16T15:15:13;19.70;57.60
45060;DHT22;30799;49.060;9.312;2023-04-16T15:17:42;19.70;57.60
45060;DHT22;30799;49.060;9.312;2023-04-16T15:20:09;19.70;57.60
45060;DHT22;30799;49.060;9.312;2023-04-16T15:22:36;19.70;57.60
45060;DHT22;30799;49.060;9.312;2023-04-16T15:25:04;19.70;57.70
45060;DHT22;30799;49.060;9.312;2023-04-16T15:27:31;19.70;57.80
45060;DHT22;30799;49.060;9.312;2023-04-16T15:29:58;19.70;57.80
45060;DHT22;30799;49.060;9.312;2023-04-16T15:32:25;19.70;57.80
45060;DHT22;30799;49.060;9.312;2023-04-16T15:34:51;19.70;57.90
45060;DHT22;30799;49.060;9.312;2023-04-16T15:37:18;19.70;57.80
45060;DHT22;30799;49.060;9.312;2023-04-16T15:39:45;19.70;57.80
45060;DHT22;30799;49.060;9.312;2023-04-16T15:42:12;19.70;57.90
45060;DHT22;30799;49.060;9.312;2023-04-16T15:44:38;19.70;58.00